sensor_id;sensor_type;location;lat;lon;timestamp;pressure;altitude;pressure_sealevel;temperature;humidity
29569;BME280;16501;51.462;14.346;2023-02-16T00:01:56;101050.59;;;0.91;100.00
29569;BME280;16501;51.462;14.346;2023-02-16T00:04:29;101002.34;;;0.64;100.00
29569;BME280;16501;51.462;14.346;2023-02-16T00:06:55;101018.94;;;0.71;100.00
29569;BME280;16501;51.462;14.346;2023-02-16T00:09:23;101022.44;;;0.68;100.00
29569;BME280;16501;51.462;14.346;2023-02-16T00:11:50;101042.28;;;0.84;100.00
29569;BME280;16501;51.462;14.346;2023-02-16T00:14:37;101032.00;;;0.81;100.00
29569;BME280;16501;51.462;14.346;2023-02-16T00:17:03;101007.47;;;0.62;100.00
29569;BME280;16501;51.462;14.346;2023-02-16T00:19:37;100999.19;;;0.62;100.00
29569;BME280;16501;51.462;14.346;2023-02-16T00:22:03;101029.19;;;0.70;100.00
29569;BME280;16501;51.462;14.346;2023-02-16T00:24:30;101029.16;;;0.67;100.00
29569;BME280;16501;51.462;14.346;2023-02-16T00:26:56;100952.00;;;0.15;100.00
29569;BME280;16501;51.462;14.346;2023-02-16T00:29:31;101008.16;;;0.48;100.00
29569;BME280;16501;51.462;14.346;2023-02-16T00:31:59;101014.88;;;0.54;100.00
29569;BME280;16501;51.462;14.346;2023-02-16T00:36:54;101012.53;;;0.52;100.00
29569;BME280;16501;51.462;14.346;2023-02-16T00:39:20;101031.66;;;0.24;100.00
29569;BME280;16501;51.462;14.346;2023-02-16T00:41:46;101015.28;;;0.49;100.00
29569;BME280;16501;51.462;14.346;2023-02-16T00:44:18;100985.19;;;0.33;100.00
29569;BME280;16501;51.462;14.346;2023-02-16T00:46:45;100997.44;;;0.35;100.00
29569;BME280;16501;51.462;14.346;2023-02-16T00:49:16;101024.75;;;0.55;100.00
29569;BME280;16501;51.462;14.346;2023-02-16T00:51:42;100974.53;;;0.28;100.00
29569;BME280;16501;51.462;14.346;2023-02-16T00:54:09;101009.75;;;0.49;100.00
29569;BME280;16501;51.462;14.346;2023-02-16T00:56:36;100996.19;;;0.26;100.00
29569;BME280;16501;51.462;14.346;2023-02-16T00:59:05;101012.94;;;0.54;100.00
29569;BME280;16501;51.462;14.346;2023-02-16T01:01:33;100925.88;;;-0.02;100.00
29569;BME280;16501;51.462;14.346;2023-02-16T01:04:02;100996.34;;;0.47;100.00
29569;BME280;16501;51.462;14.346;2023-02-16T01:06:29;100969.78;;;0.21;100.00
29569;BME280;16501;51.462;14.346;2023-02-16T01:09:17;100960.19;;;0.01;100.00
29569;BME280;16501;51.462;14.346;2023-02-16T01:12:04;101001.34;;;0.31;100.00
29569;BME280;16501;51.462;14.346;2023-02-16T01:14:31;100999.66;;;0.15;100.00
29569;BME280;16501;51.462;14.346;2023-02-16T01:16:57;101006.50;;;0.36;100.00
29569;BME280;16501;51.462;14.346;2023-02-16T01:19:23;100993.06;;;0.27;100.00
29569;BME280;16501;51.462;14.346;2023-02-16T01:21:49;101003.38;;;0.37;100.00
29569;BME280;16501;51.462;14.346;2023-02-16T01:24:14;100991.50;;;0.30;100.00
29569;BME280;16501;51.462;14.346;2023-02-16T01:26:43;100998.63;;;0.34;100.00
29569;BME280;16501;51.462;14.346;2023-02-16T01:29:13;101004.13;;;0.31;100.00
29569;BME280;16501;51.462;14.346;2023-02-16T01:31:39;101011.19;;;0.28;100.00
29569;BME280;16501;51.462;14.346;2023-02-16T01:34:04;100970.88;;;0.09;100.00
29569;BME280;16501;51.462;14.346;2023-02-16T01:36:33;101001.72;;;0.29;100.00
29569;BME280;16501;51.462;14.346;2023-02-16T01:39:02;101000.53;;;0.23;100.00
29569;BME280;16501;51.462;14.346;2023-02-16T01:41:36;100995.00;;;0.23;100.00
29569;BME280;16501;51.462;14.346;2023-02-16T01:44:11;100987.06;;;0.14;100.00
29569;BME280;16501;51.462;14.346;2023-02-16T01:49:12;100982.69;;;0.06;100.00
29569;BME280;16501;51.462;14.346;2023-02-16T01:51:57;100990.56;;;0.08;100.00
29569;BME280;16501;51.462;14.346;2023-02-16T01:57:37;100987.75;;;0.01;100.00
29569;BME280;16501;51.462;14.346;2023-02-16T02:02:40;100989.34;;;0.05;100.00
29569;BME280;16501;51.462;14.346;2023-02-16T02:05:16;100960.47;;;-0.15;100.00
29569;BME280;16501;51.462;14.346;2023-02-16T02:14:05;100985.03;;;0.04;100.00
29569;BME280;16501;51.462;14.346;2023-02-16T02:16:33;100964.44;;;-0.09;100.00
29569;BME280;16501;51.462;14.346;2023-02-16T02:18:58;100978.28;;;-0.02;100.00
29569;BME280;16501;51.462;14.346;2023-02-16T02:25:02;100970.34;;;-0.07;100.00
29569;BME280;16501;51.462;14.346;2023-02-16T02:27:46;100970.34;;;-0.07;100.00
29569;BME280;16501;51.462;14.346;2023-02-16T02:30:59;100930.00;;;-0.33;100.00
29569;BME280;16501;51.462;14.346;2023-02-16T02:33:59;100966.44;;;-0.06;100.00
29569;BME280;16501;51.462;14.346;2023-02-16T02:36:48;100967.59;;;-0.07;100.00
29569;BME280;16501;51.462;14.346;2023-02-16T02:39:42;100966.81;;;-0.08;100.00
29569;BME280;16501;51.462;14.346;2023-02-16T02:42:17;100959.34;;;-0.07;100.00
29569;BME280;16501;51.462;14.346;2023-02-16T02:45:03;100964.44;;;-0.09;100.00
29569;BME280;16501;51.462;14.346;2023-02-16T02:47:49;100958.09;;;-0.17;100.00
29569;BME280;16501;51.462;14.346;2023-02-16T02:53:51;100969.44;;;-0.26;100.00
29569;BME280;16501;51.462;14.346;2023-02-16T02:56:38;100956.41;;;-0.29;100.00
29569;BME280;16501;51.462;14.346;2023-02-16T02:59:25;100944.94;;;-0.38;100.00
29569;BME280;16501;51.462;14.346;2023-02-16T03:02:15;100948.47;;;-0.38;100.00
29569;BME280;16501;51.462;14.346;2023-02-16T03:04:43;100947.34;;;-0.33;100.00
29569;BME280;16501;51.462;14.346;2023-02-16T03:07:11;100943.72;;;-0.41;100.00
29569;BME280;16501;51.462;14.346;2023-02-16T03:09:40;100924.72;;;-0.53;100.00
29569;BME280;16501;51.462;14.346;2023-02-16T03:12:07;100915.97;;;-0.66;100.00
29569;BME280;16501;51.462;14.346;2023-02-16T03:14:55;100891.81;;;-0.83;100.00
29569;BME280;16501;51.462;14.346;2023-02-16T03:17:35;100954.72;;;-0.44;100.00
29569;BME280;16501;51.462;14.346;2023-02-16T03:20:20;100901.59;;;-0.86;100.00
29569;BME280;16501;51.462;14.346;2023-02-16T03:23:05;100961.78;;;-0.47;100.00
29569;BME280;16501;51.462;14.346;2023-02-16T03:25:51;100940.81;;;-0.59;100.00
29569;BME280;16501;51.462;14.346;2023-02-16T03:28:37;100949.16;;;-0.51;100.00
29569;BME280;16501;51.462;14.346;2023-02-16T03:31:27;100966.94;;;-0.83;100.00
29569;BME280;16501;51.462;14.346;2023-02-16T03:33:53;100941.50;;;-0.69;100.00
29569;BME280;16501;51.462;14.346;2023-02-16T03:36:24;100899.16;;;-0.95;100.00
29569;BME280;16501;51.462;14.346;2023-02-16T03:38:50;100892.03;;;-1.03;100.00
29569;BME280;16501;51.462;14.346;2023-02-16T03:41:18;100964.44;;;-0.58;100.00
29569;BME280;16501;51.462;14.346;2023-02-16T03:43:43;100972.28;;;-0.60;100.00
29569;BME280;16501;51.462;14.346;2023-02-16T03:46:09;100967.16;;;-0.61;100.00
29569;BME280;16501;51.462;14.346;2023-02-16T03:48:36;100917.88;;;-1.11;100.00
29569;BME280;16501;51.462;14.346;2023-02-16T03:51:01;100972.22;;;-0.67;100.00
29569;BME280;16501;51.462;14.346;2023-02-16T03:53:26;100952.38;;;-0.83;100.00
29569;BME280;16501;51.462;14.346;2023-02-16T03:55:53;100971.00;;;-0.73;100.00
29569;BME280;16501;51.462;14.346;2023-02-16T03:58:21;100964.63;;;-0.77;100.00
29569;BME280;16501;51.462;14.346;2023-02-16T04:00:48;100971.75;;;-0.76;100.00
29569;BME280;16501;51.462;14.346;2023-02-16T04:03:14;100970.13;;;-0.77;100.00
29569;BME280;16501;51.462;14.346;2023-02-16T04:05:40;100970.13;;;-0.77;100.00
29569;BME280;16501;51.462;14.346;2023-02-16T04:08:07;100950.31;;;-0.93;100.00
29569;BME280;16501;51.462;14.346;2023-02-16T04:10:33;100964.16;;;-0.86;100.00
29569;BME280;16501;51.462;14.346;2023-02-16T04:12:58;100962.16;;;-0.89;100.00
29569;BME280;16501;51.462;14.346;2023-02-16T04:15:26;100929.69;;;-1.10;100.00
29569;BME280;16501;51.462;14.346;2023-02-16T04:17:52;100977.50;;;-0.88;100.00
29569;BME280;16501;51.462;14.346;2023-02-16T04:20:22;100962.19;;;-0.86;100.00
29569;BME280;16501;51.462;14.346;2023-02-16T04:22:49;100962.19;;;-0.86;100.00
29569;BME280;16501;51.462;14.346;2023-02-16T04:25:16;100954.06;;;-1.09;100.00
29569;BME280;16501;51.462;14.346;2023-02-16T04:27:43;100932.06;;;-1.09;100.00
29569;BME280;16501;51.462;14.346;2023-02-16T04:30:14;100932.41;;;-1.14;100.00
29569;BME280;16501;51.462;14.346;2023-02-16T04:32:39;100952.66;;;-0.96;100.00
29569;BME280;16501;51.462;14.346;2023-02-16T04:35:06;100951.06;;;-0.97;100.00
29569;BME280;16501;51.462;14.346;2023-02-16T04:37:33;100952.16;;;-1.05;100.00
29569;BME280;16501;51.462;14.346;2023-02-16T04:40:00;100948.97;;;-1.07;100.00
29569;BME280;16501;51.462;14.346;2023-02-16T04:42:25;100951.78;;;-1.03;100.00
29569;BME280;16501;51.462;14.346;2023-02-16T04:44:51;100947.44;;;-1.04;100.00
29569;BME280;16501;51.462;14.346;2023-02-16T04:47:17;100949.34;;;-1.08;100.00
29569;BME280;16501;51.462;14.346;2023-02-16T04:49:43;100956.41;;;-1.11;100.00
29569;BME280;16501;51.462;14.346;2023-02-16T04:52:13;100954.81;;;-1.12;100.00
29569;BME280;16501;51.462;14.346;2023-02-16T04:54:39;100961.13;;;-1.11;100.00
29569;BME280;16501;51.462;14.346;2023-02-16T04:57:04;100961.88;;;-1.15;100.00
29569;BME280;16501;51.462;14.346;2023-02-16T04:59:30;100949.97;;;-1.22;100.00
29569;BME280;16501;51.462;14.346;2023-02-16T05:01:56;100910.41;;;-1.48;100.00
29569;BME280;16501;51.462;14.346;2023-02-16T05:04:23;100957.09;;;-1.21;100.00
29569;BME280;16501;51.462;14.346;2023-02-16T05:06:50;100903.13;;;-1.63;100.00
29569;BME280;16501;51.462;14.346;2023-02-16T05:09:15;100966.44;;;-1.26;100.00
29569;BME280;16501;51.462;14.346;2023-02-16T05:11:41;100935.59;;;-1.42;100.00
29569;BME280;16501;51.462;14.346;2023-02-16T05:14:29;100960.09;;;-1.34;100.00
29569;BME280;16501;51.462;14.346;2023-02-16T05:17:17;100960.13;;;-1.30;100.00
29569;BME280;16501;51.462;14.346;2023-02-16T05:19:46;100969.91;;;-1.33;100.00
29569;BME280;16501;51.462;14.346;2023-02-16T05:22:12;100962.41;;;-1.36;100.00
29569;BME280;16501;51.462;14.346;2023-02-16T05:24:38;100954.88;;;-1.42;100.00
29569;BME280;16501;51.462;14.346;2023-02-16T05:27:06;100965.16;;;-1.36;100.00
29569;BME280;16501;51.462;14.346;2023-02-16T05:29:32;100967.91;;;-1.36;100.00
29569;BME280;16501;51.462;14.346;2023-02-16T05:31:59;100953.53;;;-1.52;100.00
29569;BME280;16501;51.462;14.346;2023-02-16T05:34:24;100968.63;;;-1.42;100.00
29569;BME280;16501;51.462;14.346;2023-02-16T05:36:51;100937.75;;;-1.59;100.00
29569;BME280;16501;51.462;14.346;2023-02-16T05:39:17;100958.72;;;-1.47;100.00
29569;BME280;16501;51.462;14.346;2023-02-16T05:41:43;100942.00;;;-1.65;100.00
29569;BME280;16501;51.462;14.346;2023-02-16T05:44:11;100956.72;;;-1.50;100.00
29569;BME280;16501;51.462;14.346;2023-02-16T05:46:38;100966.94;;;-1.50;100.00
29569;BME280;16501;51.462;14.346;2023-02-16T05:49:04;100939.25;;;-1.65;100.00
29569;BME280;16501;51.462;14.346;2023-02-16T05:51:30;100965.34;;;-1.52;100.00
29569;BME280;16501;51.462;14.346;2023-02-16T05:53:56;100933.69;;;-1.68;100.00
29569;BME280;16501;51.462;14.346;2023-02-16T05:56:24;100956.22;;;-1.59;100.00
29569;BME280;16501;51.462;14.346;2023-02-16T05:58:49;100935.63;;;-1.69;100.00
29569;BME280;16501;51.462;14.346;2023-02-16T06:01:15;100940.34;;;-1.69;100.00
29569;BME280;16501;51.462;14.346;2023-02-16T06:03:41;100965.28;;;-1.55;100.00
29569;BME280;16501;51.462;14.346;2023-02-16T06:06:08;100956.56;;;-1.61;100.00
29569;BME280;16501;51.462;14.346;2023-02-16T06:08:34;100968.44;;;-1.57;100.00
29569;BME280;16501;51.462;14.346;2023-02-16T06:11:00;100971.56;;;-1.58;100.00
29569;BME280;16501;51.462;14.346;2023-02-16T06:13:27;100939.84;;;-1.79;100.00
29569;BME280;16501;51.462;14.346;2023-02-16T06:15:54;100960.47;;;-1.65;100.00
29569;BME280;16501;51.462;14.346;2023-02-16T06:18:21;100957.28;;;-1.67;100.00
29569;BME280;16501;51.462;14.346;2023-02-16T06:20:46;100961.25;;;-1.65;100.00
29569;BME280;16501;51.462;14.346;2023-02-16T06:23:12;100968.31;;;-1.64;100.00
29569;BME280;16501;51.462;14.346;2023-02-16T06:25:43;100950.84;;;-1.79;100.00
29569;BME280;16501;51.462;14.346;2023-02-16T06:28:09;100970.31;;;-1.61;100.00
29569;BME280;16501;51.462;14.346;2023-02-16T06:30:40;100975.47;;;-1.59;100.00
29569;BME280;16501;51.462;14.346;2023-02-16T06:33:07;100956.38;;;-1.75;100.00
29569;BME280;16501;51.462;14.346;2023-02-16T06:35:32;100909.69;;;-2.02;100.00
29569;BME280;16501;51.462;14.346;2023-02-16T06:37:58;100963.69;;;-1.60;100.00
29569;BME280;16501;51.462;14.346;2023-02-16T06:40:23;100960.34;;;-1.73;100.00
29569;BME280;16501;51.462;14.346;2023-02-16T06:42:49;100974.31;;;-1.58;100.00
29569;BME280;16501;51.462;14.346;2023-02-16T06:45:15;100912.91;;;-1.96;100.00
29569;BME280;16501;51.462;14.346;2023-02-16T06:47:40;100970.78;;;-1.55;100.00
29569;BME280;16501;51.462;14.346;2023-02-16T06:50:06;100949.03;;;-1.67;100.00
29569;BME280;16501;51.462;14.346;2023-02-16T06:52:35;100971.50;;;-1.62;100.00
29569;BME280;16501;51.462;14.346;2023-02-16T06:55:01;100961.19;;;-1.68;100.00
29569;BME280;16501;51.462;14.346;2023-02-16T06:57:26;100970.91;;;-1.48;100.00
29569;BME280;16501;51.462;14.346;2023-02-16T06:59:52;100981.91;;;-1.48;100.00
29569;BME280;16501;51.462;14.346;2023-02-16T07:02:17;100964.56;;;-1.52;100.00
29569;BME280;16501;51.462;14.346;2023-02-16T07:04:42;100940.63;;;-1.78;100.00
29569;BME280;16501;51.462;14.346;2023-02-16T07:07:07;100968.91;;;-1.51;100.00
29569;BME280;16501;51.462;14.346;2023-02-16T07:09:35;100965.44;;;-1.44;100.00
29569;BME280;16501;51.462;14.346;2023-02-16T07:12:00;100924.31;;;-1.64;100.00
29569;BME280;16501;51.462;14.346;2023-02-16T07:14:26;100946.56;;;-1.46;100.00
29569;BME280;16501;51.462;14.346;2023-02-16T07:16:53;100968.72;;;-1.35;100.00
29569;BME280;16501;51.462;14.346;2023-02-16T07:19:18;100934.63;;;-1.57;100.00
29569;BME280;16501;51.462;14.346;2023-02-16T07:21:43;100980.66;;;-1.20;100.00
29569;BME280;16501;51.462;14.346;2023-02-16T07:24:10;100974.81;;;-1.15;100.00
29569;BME280;16501;51.462;14.346;2023-02-16T07:26:36;100935.31;;;-1.34;100.00
29569;BME280;16501;51.462;14.346;2023-02-16T07:29:03;100957.16;;;-1.14;100.00
29569;BME280;16501;51.462;14.346;2023-02-16T07:31:29;100939.00;;;-1.19;100.00
29569;BME280;16501;51.462;14.346;2023-02-16T07:33:55;100935.88;;;-1.17;100.00
29569;BME280;16501;51.462;14.346;2023-02-16T07:36:20;100935.53;;;-1.16;100.00
29569;BME280;16501;51.462;14.346;2023-02-16T07:38:46;100925.72;;;-1.13;100.00
29569;BME280;16501;51.462;14.346;2023-02-16T07:41:12;100934.63;;;-0.89;100.00
29569;BME280;16501;51.462;14.346;2023-02-16T07:43:37;100966.78;;;-0.60;100.00
29569;BME280;16501;51.462;14.346;2023-02-16T07:46:03;100936.06;;;-0.62;100.00
29569;BME280;16501;51.462;14.346;2023-02-16T07:48:29;100976.69;;;-0.07;100.00
29569;BME280;16501;51.462;14.346;2023-02-16T07:50:55;100972.34;;;-0.08;100.00
29569;BME280;16501;51.462;14.346;2023-02-16T07:53:20;100960.13;;;-0.07;100.00
29569;BME280;16501;51.462;14.346;2023-02-16T07:55:45;100943.81;;;-0.26;100.00
29569;BME280;16501;51.462;14.346;2023-02-16T07:58:12;100972.97;;;-0.29;100.00
29569;BME280;16501;51.462;14.346;2023-02-16T08:00:53;100955.53;;;-0.40;100.00
29569;BME280;16501;51.462;14.346;2023-02-16T08:03:18;100974.53;;;-0.31;100.00
29569;BME280;16501;51.462;14.346;2023-02-16T08:05:44;100928.53;;;-0.68;100.00
29569;BME280;16501;51.462;14.346;2023-02-16T08:08:10;100989.44;;;-0.36;100.00
29569;BME280;16501;51.462;14.346;2023-02-16T08:10:35;100989.03;;;-0.38;100.00
29569;BME280;16501;51.462;14.346;2023-02-16T08:13:00;100984.69;;;-0.35;100.00
29569;BME280;16501;51.462;14.346;2023-02-16T08:15:26;100983.16;;;-0.33;100.00
29569;BME280;16501;51.462;14.346;2023-02-16T08:17:52;100983.94;;;-0.32;100.00
29569;BME280;16501;51.462;14.346;2023-02-16T08:20:19;100959.47;;;-0.41;100.00
29569;BME280;16501;51.462;14.346;2023-02-16T08:22:44;100990.34;;;-0.21;100.00
29569;BME280;16501;51.462;14.346;2023-02-16T08:25:10;100990.34;;;-0.17;100.00
29569;BME280;16501;51.462;14.346;2023-02-16T08:27:37;100957.94;;;-0.35;100.00
29569;BME280;16501;51.462;14.346;2023-02-16T08:30:02;100984.53;;;-0.09;100.00
29569;BME280;16501;51.462;14.346;2023-02-16T08:32:28;100989.69;;;-0.04;100.00
29569;BME280;16501;51.462;14.346;2023-02-16T08:34:54;100968.78;;;-0.08;100.00
29569;BME280;16501;51.462;14.346;2023-02-16T08:37:22;100990.72;;;0.33;100.00
29569;BME280;16501;51.462;14.346;2023-02-16T08:39:48;100986.50;;;0.50;100.00
29569;BME280;16501;51.462;14.346;2023-02-16T08:42:14;100982.25;;;0.70;100.00
29569;BME280;16501;51.462;14.346;2023-02-16T08:44:39;100987.09;;;0.99;100.00
29569;BME280;16501;51.462;14.346;2023-02-16T08:47:07;100927.88;;;0.82;100.00
29569;BME280;16501;51.462;14.346;2023-02-16T08:49:33;100993.56;;;1.60;100.00
29569;BME280;16501;51.462;14.346;2023-02-16T08:51:58;100977.78;;;1.79;100.00
29569;BME280;16501;51.462;14.346;2023-02-16T08:54:28;100987.63;;;2.05;100.00
29569;BME280;16501;51.462;14.346;2023-02-16T08:56:56;100985.19;;;2.54;100.00
29569;BME280;16501;51.462;14.346;2023-02-16T08:59:24;100984.34;;;2.64;100.00
29569;BME280;16501;51.462;14.346;2023-02-16T09:01:49;100988.69;;;2.72;100.00
29569;BME280;16501;51.462;14.346;2023-02-16T09:04:16;100985.50;;;2.77;100.00
29569;BME280;16501;51.462;14.346;2023-02-16T09:06:44;100985.97;;;2.61;100.00
29569;BME280;16501;51.462;14.346;2023-02-16T09:09:13;100933.47;;;2.22;100.00
29569;BME280;16501;51.462;14.346;2023-02-16T09:11:38;100945.28;;;2.30;100.00
29569;BME280;16501;51.462;14.346;2023-02-16T09:14:05;100980.84;;;2.56;100.00
29569;BME280;16501;51.462;14.346;2023-02-16T09:16:31;100980.72;;;2.81;100.00
29569;BME280;16501;51.462;14.346;2023-02-16T09:19:02;100974.66;;;3.15;100.00
29569;BME280;16501;51.462;14.346;2023-02-16T09:21:29;100982.84;;;3.37;100.00
29569;BME280;16501;51.462;14.346;2023-02-16T09:24:01;100991.81;;;3.59;100.00
29569;BME280;16501;51.462;14.346;2023-02-16T09:26:33;100952.13;;;3.69;100.00
29569;BME280;16501;51.462;14.346;2023-02-16T09:29:00;100990.94;;;4.18;100.00
29569;BME280;16501;51.462;14.346;2023-02-16T09:31:30;100980.78;;;4.39;100.00
29569;BME280;16501;51.462;14.346;2023-02-16T09:34:00;100989.66;;;4.64;100.00
29569;BME280;16501;51.462;14.346;2023-02-16T09:36:25;100976.66;;;4.88;100.00
29569;BME280;16501;51.462;14.346;2023-02-16T09:38:52;100986.19;;;5.18;99.03
29569;BME280;16501;51.462;14.346;2023-02-16T09:44:20;100981.13;;;5.40;95.20
29569;BME280;16501;51.462;14.346;2023-02-16T09:46:50;100990.63;;;5.70;95.45
29569;BME280;16501;51.462;14.346;2023-02-16T09:49:29;100960.13;;;5.63;93.09
29569;BME280;16501;51.462;14.346;2023-02-16T09:52:36;100983.34;;;6.03;92.86
29569;BME280;16501;51.462;14.346;2023-02-16T09:55:11;100985.81;;;6.21;92.06
29569;BME280;16501;51.462;14.346;2023-02-16T10:03:22;100979.44;;;6.65;87.57
29569;BME280;16501;51.462;14.346;2023-02-16T10:08:48;100975.69;;;6.31;86.77
29569;BME280;16501;51.462;14.346;2023-02-16T10:11:26;100916.09;;;5.81;86.92
29569;BME280;16501;51.462;14.346;2023-02-16T10:14:26;100981.22;;;6.11;88.15
29569;BME280;16501;51.462;14.346;2023-02-16T10:17:10;100981.50;;;5.93;88.17
29569;BME280;16501;51.462;14.346;2023-02-16T10:19:45;100981.19;;;6.15;88.46
29569;BME280;16501;51.462;14.346;2023-02-16T10:22:16;100978.63;;;6.44;87.86
29569;BME280;16501;51.462;14.346;2023-02-16T10:25:07;100972.09;;;6.74;84.91
29569;BME280;16501;51.462;14.346;2023-02-16T10:27:39;100981.50;;;7.01;84.88
29569;BME280;16501;51.462;14.346;2023-02-16T10:30:20;100984.91;;;7.28;84.84
29569;BME280;16501;51.462;14.346;2023-02-16T10:33:13;100984.50;;;7.46;83.28
29569;BME280;16501;51.462;14.346;2023-02-16T10:38:21;100981.28;;;7.64;79.12
29569;BME280;16501;51.462;14.346;2023-02-16T10:43:22;100984.56;;;7.59;77.47
29569;BME280;16501;51.462;14.346;2023-02-16T10:45:54;100959.03;;;7.61;77.99
29569;BME280;16501;51.462;14.346;2023-02-16T10:48:21;100973.94;;;7.87;78.52
29569;BME280;16501;51.462;14.346;2023-02-16T10:51:02;100971.16;;;7.87;75.61
29569;BME280;16501;51.462;14.346;2023-02-16T10:56:01;100959.22;;;7.86;73.84
29569;BME280;16501;51.462;14.346;2023-02-16T10:58:46;100941.94;;;7.91;74.19
29569;BME280;16501;51.462;14.346;2023-02-16T11:01:18;100955.84;;;8.08;72.16
29569;BME280;16501;51.462;14.346;2023-02-16T11:03:47;100924.38;;;8.07;72.24
29569;BME280;16501;51.462;14.346;2023-02-16T11:06:19;100945.59;;;8.34;72.29
29569;BME280;16501;51.462;14.346;2023-02-16T11:08:56;100926.41;;;8.36;72.60
29569;BME280;16501;51.462;14.346;2023-02-16T11:14:02;100925.16;;;8.37;71.10
29569;BME280;16501;51.462;14.346;2023-02-16T11:16:29;100939.47;;;8.56;70.44
29569;BME280;16501;51.462;14.346;2023-02-16T11:19:19;100960.88;;;8.75;70.20
29569;BME280;16501;51.462;14.346;2023-02-16T11:21:51;100940.97;;;8.73;68.47
29569;BME280;16501;51.462;14.346;2023-02-16T11:24:31;100915.91;;;8.70;67.79
29569;BME280;16501;51.462;14.346;2023-02-16T11:29:38;100921.44;;;8.99;67.93
29569;BME280;16501;51.462;14.346;2023-02-16T11:32:06;100928.03;;;9.05;67.09
29569;BME280;16501;51.462;14.346;2023-02-16T11:34:35;100929.72;;;9.02;68.78
29569;BME280;16501;51.462;14.346;2023-02-16T11:37:24;100927.13;;;9.21;68.18
29569;BME280;16501;51.462;14.346;2023-02-16T11:40:27;100924.00;;;9.19;65.02
29569;BME280;16501;51.462;14.346;2023-02-16T11:42:56;100916.28;;;9.23;66.36
29569;BME280;16501;51.462;14.346;2023-02-16T11:45:32;100927.59;;;9.45;64.44
29569;BME280;16501;51.462;14.346;2023-02-16T11:48:01;100931.63;;;9.44;63.33
29569;BME280;16501;51.462;14.346;2023-02-16T11:50:33;100919.50;;;9.47;62.90
29569;BME280;16501;51.462;14.346;2023-02-16T11:55:34;100922.56;;;9.53;61.73
29569;BME280;16501;51.462;14.346;2023-02-16T11:58:15;100912.78;;;9.57;63.70
29569;BME280;16501;51.462;14.346;2023-02-16T12:04:01;100911.78;;;9.64;62.30
29569;BME280;16501;51.462;14.346;2023-02-16T12:06:50;100913.53;;;9.84;62.35
29569;BME280;16501;51.462;14.346;2023-02-16T12:09:42;100910.94;;;9.89;61.81
29569;BME280;16501;51.462;14.346;2023-02-16T12:12:19;100910.94;;;9.89;61.64
29569;BME280;16501;51.462;14.346;2023-02-16T12:15:16;100913.94;;;9.95;60.80
29569;BME280;16501;51.462;14.346;2023-02-16T12:21:03;100901.41;;;9.87;60.78
29569;BME280;16501;51.462;14.346;2023-02-16T12:26:45;100885.09;;;10.07;60.42
29569;BME280;16501;51.462;14.346;2023-02-16T12:29:44;100893.97;;;10.06;59.45
29569;BME280;16501;51.462;14.346;2023-02-16T12:32:33;100889.69;;;10.14;58.76
29569;BME280;16501;51.462;14.346;2023-02-16T12:35:28;100875.13;;;10.06;59.51
29569;BME280;16501;51.462;14.346;2023-02-16T12:38:32;100875.16;;;10.28;59.50
29569;BME280;16501;51.462;14.346;2023-02-16T12:43:41;100863.47;;;10.30;58.86
29569;BME280;16501;51.462;14.346;2023-02-16T12:46:18;100877.00;;;10.44;57.85
29569;BME280;16501;51.462;14.346;2023-02-16T12:51:20;100848.31;;;10.40;56.90
29569;BME280;16501;51.462;14.346;2023-02-16T12:56:53;100861.66;;;10.58;56.46
29569;BME280;16501;51.462;14.346;2023-02-16T12:59:49;100862.28;;;10.62;57.39
29569;BME280;16501;51.462;14.346;2023-02-16T13:02:30;100843.25;;;10.57;56.45
29569;BME280;16501;51.462;14.346;2023-02-16T13:05:07;100841.63;;;10.69;57.32
29569;BME280;16501;51.462;14.346;2023-02-16T13:07:43;100845.56;;;10.81;57.18
29569;BME280;16501;51.462;14.346;2023-02-16T13:13:01;100846.94;;;10.76;56.16
29569;BME280;16501;51.462;14.346;2023-02-16T13:15:38;100845.16;;;10.91;56.38
29569;BME280;16501;51.462;14.346;2023-02-16T13:20:47;100851.22;;;10.90;55.13
29569;BME280;16501;51.462;14.346;2023-02-16T13:23:22;100838.00;;;11.00;54.86
29569;BME280;16501;51.462;14.346;2023-02-16T13:25:53;100837.56;;;11.01;54.28
29569;BME280;16501;51.462;14.346;2023-02-16T13:45:39;100794.66;;;10.91;54.37
29569;BME280;16501;51.462;14.346;2023-02-16T13:48:26;100818.22;;;11.03;53.30
29569;BME280;16501;51.462;14.346;2023-02-16T13:51:03;100814.03;;;11.08;54.18
29569;BME280;16501;51.462;14.346;2023-02-16T13:53:38;100820.88;;;10.98;53.29
29569;BME280;16501;51.462;14.346;2023-02-16T13:58:52;100812.16;;;11.05;54.70
29569;BME280;16501;51.462;14.346;2023-02-16T14:03:57;100816.38;;;11.09;54.90
29569;BME280;16501;51.462;14.346;2023-02-16T14:14:30;100824.31;;;11.02;53.04
29569;BME280;16501;51.462;14.346;2023-02-16T14:17:20;100828.63;;;10.93;53.45
29569;BME280;16501;51.462;14.346;2023-02-16T14:19:50;100810.72;;;10.91;53.62
29569;BME280;16501;51.462;14.346;2023-02-16T14:22:23;100803.88;;;10.92;53.69
29569;BME280;16501;51.462;14.346;2023-02-16T14:25:31;100798.13;;;11.05;52.88
29569;BME280;16501;51.462;14.346;2023-02-16T14:28:04;100813.47;;;11.31;52.67
29569;BME280;16501;51.462;14.346;2023-02-16T14:30:51;100817.06;;;11.41;52.84
29569;BME280;16501;51.462;14.346;2023-02-16T14:33:20;100761.19;;;11.16;52.75
29569;BME280;16501;51.462;14.346;2023-02-16T14:40:55;100815.53;;;11.77;53.10
29569;BME280;16501;51.462;14.346;2023-02-16T14:43:43;100817.28;;;11.65;52.66
29569;BME280;16501;51.462;14.346;2023-02-16T14:49:13;100818.16;;;11.44;53.20
29569;BME280;16501;51.462;14.346;2023-02-16T14:52:03;100817.50;;;11.21;53.31